createdAt,value
2018-05-21T00:01:40.147Z,12.80
2018-05-21T00:04:07.792Z,12.80
2018-05-21T00:06:35.468Z,12.80
2018-05-21T00:09:03.217Z,12.80
2018-05-21T00:11:30.789Z,12.70
2018-05-21T00:13:59.886Z,12.70
2018-05-21T00:16:27.476Z,12.70
2018-05-21T00:18:55.195Z,12.80
2018-05-21T00:21:22.787Z,12.80
2018-05-21T00:23:50.359Z,12.70
2018-05-21T00:26:17.951Z,12.70
2018-05-21T00:28:46.296Z,12.70
2018-05-21T00:31:14.023Z,12.70
2018-05-21T00:33:41.684Z,12.70
2018-05-21T00:36:09.253Z,12.70
2018-05-21T00:38:36.854Z,12.70
2018-05-21T00:41:04.440Z,12.70
2018-05-21T00:43:32.853Z,12.70
2018-05-21T00:46:00.453Z,12.70
2018-05-21T00:48:28.026Z,12.70
2018-05-21T00:50:55.636Z,12.70
2018-05-21T00:53:23.213Z,12.60
2018-05-21T00:55:50.808Z,12.60
2018-05-21T00:58:18.388Z,12.50
2018-05-21T01:00:46.756Z,12.40
2018-05-21T01:03:15.114Z,12.40
2018-05-21T01:05:42.731Z,12.40
2018-05-21T01:08:10.319Z,12.40
2018-05-21T01:10:37.895Z,12.30
2018-05-21T01:13:05.479Z,12.30
2018-05-21T01:15:33.853Z,12.20
2018-05-21T01:18:01.464Z,12.20
2018-05-21T01:20:29.073Z,12.20
2018-05-21T01:22:56.665Z,12.20
2018-05-21T01:25:24.234Z,12.20
2018-05-21T01:27:51.818Z,12.10
2018-05-21T01:30:20.201Z,12.10
2018-05-21T01:32:47.835Z,12.00
2018-05-21T01:35:15.418Z,12.00
2018-05-21T01:37:43.016Z,11.90
2018-05-21T01:40:10.629Z,11.90
2018-05-21T01:42:38.237Z,11.90
2018-05-21T01:45:05.819Z,11.90
2018-05-21T01:47:34.177Z,11.80
2018-05-21T01:50:01.758Z,11.80
2018-05-21T01:52:30.112Z,11.70
2018-05-21T01:54:57.675Z,11.70
2018-05-21T01:57:25.269Z,11.70
2018-05-21T01:59:53.620Z,11.50
2018-05-21T02:02:21.928Z,11.50
2018-05-21T02:04:49.506Z,11.40
2018-05-21T02:07:17.119Z,11.40
2018-05-21T02:09:44.721Z,11.40
2018-05-21T02:12:12.311Z,11.30
2018-05-21T02:14:39.915Z,11.30
2018-05-21T02:17:07.502Z,11.20
2018-05-21T02:19:35.068Z,11.20
2018-05-21T02:22:02.646Z,11.10
2018-05-21T02:24:30.247Z,11.00
2018-05-21T02:26:57.898Z,11.00
2018-05-21T02:29:27.483Z,10.90
2018-05-21T02:31:55.175Z,10.90
2018-05-21T02:34:22.863Z,10.80
2018-05-21T02:36:50.464Z,10.80
2018-05-21T02:39:18.104Z,10.80
2018-05-21T02:41:46.465Z,10.80
2018-05-21T02:44:14.849Z,10.80
2018-05-21T02:46:43.186Z,10.70
2018-05-21T02:49:10.838Z,10.70
2018-05-21T02:51:39.184Z,8.40
2018-05-21T02:54:06.793Z,10.70
2018-05-21T02:56:35.117Z,10.70
2018-05-21T02:59:03.474Z,10.70
2018-05-21T03:01:31.059Z,10.70
2018-05-21T03:03:58.649Z,10.70
2018-05-21T03:06:26.245Z,10.60
2018-05-21T03:08:53.839Z,10.60
2018-05-21T03:11:22.257Z,10.70
2018-05-21T03:13:49.825Z,10.60
2018-05-21T03:16:17.429Z,10.70
2018-05-21T03:18:45.022Z,10.70
2018-05-21T03:21:12.631Z,10.80
2018-05-21T03:23:40.206Z,10.80
2018-05-21T03:26:07.800Z,10.70
2018-05-21T03:28:35.387Z,10.80
2018-05-21T03:31:02.995Z,10.70
2018-05-21T03:33:30.609Z,10.80
2018-05-21T03:35:58.957Z,10.70
2018-05-21T03:38:27.407Z,10.70
2018-05-21T03:40:54.992Z,10.70
2018-05-21T03:43:23.419Z,10.70
2018-05-21T03:45:51.039Z,10.70
2018-05-21T03:48:19.413Z,10.80
2018-05-21T03:50:47.841Z,10.90
2018-05-21T03:53:15.464Z,10.80
2018-05-21T03:55:43.045Z,10.90
2018-05-21T03:58:22.418Z,10.90
2018-05-21T04:01:01.724Z,11.00
2018-05-21T04:03:41.130Z,11.00
2018-05-21T04:06:09.485Z,11.40
2018-05-21T04:08:37.103Z,11.40
2018-05-21T04:11:04.689Z,12.00
2018-05-21T04:13:32.288Z,12.90
2018-05-21T04:16:00.640Z,14.50
2018-05-21T04:18:28.533Z,14.50
2018-05-21T04:20:56.901Z,15.60
2018-05-21T04:23:24.489Z,15.60
2018-05-21T04:25:52.832Z,16.50
2018-05-21T04:28:20.451Z,16.50
2018-05-21T04:30:48.032Z,17.10
2018-05-21T04:33:15.600Z,17.90
2018-05-21T04:35:43.225Z,18.50
2018-05-21T04:38:10.814Z,18.90
2018-05-21T04:40:38.414Z,19.40
2018-05-21T04:43:05.998Z,19.80
2018-05-21T04:45:34.360Z,20.60
2018-05-21T04:48:02.720Z,21.30
2018-05-21T04:50:30.376Z,21.20
2018-05-21T04:52:57.948Z,21.40
2018-05-21T04:55:25.551Z,21.70
2018-05-21T04:57:53.263Z,22.50
2018-05-21T05:00:20.800Z,23.20
2018-05-21T05:02:48.385Z,23.90
2018-05-21T05:05:15.994Z,24.80
2018-05-21T05:07:43.581Z,25.20
2018-05-21T05:10:11.177Z,25.80
2018-05-21T05:12:38.825Z,26.40
2018-05-21T05:15:06.412Z,27.00
2018-05-21T05:17:34.019Z,27.30
2018-05-21T05:20:01.833Z,27.60
2018-05-21T05:22:29.427Z,28.10
2018-05-21T05:24:57.088Z,28.30
2018-05-21T05:27:24.685Z,28.50
2018-05-21T05:29:52.269Z,28.00
2018-05-21T05:32:19.928Z,27.80
2018-05-21T05:34:47.507Z,27.50
2018-05-21T05:37:15.116Z,27.20
2018-05-21T05:39:42.685Z,27.00
2018-05-21T05:42:10.308Z,27.40
2018-05-21T05:44:37.864Z,27.30
2018-05-21T05:47:06.229Z,27.20
2018-05-21T05:49:33.856Z,27.10
2018-05-21T05:52:01.416Z,27.80
2018-05-21T05:54:29.003Z,28.30
2018-05-21T05:56:56.606Z,28.70
2018-05-21T05:59:24.173Z,28.80
2018-05-21T06:01:51.754Z,28.10
2018-05-21T06:04:19.392Z,27.40
2018-05-21T06:06:46.980Z,27.00
2018-05-21T06:09:14.580Z,26.40
2018-05-21T06:11:42.145Z,26.30
2018-05-21T06:14:09.739Z,26.20
2018-05-21T06:16:37.321Z,26.90
2018-05-21T06:19:04.921Z,26.40
2018-05-21T06:21:33.228Z,26.60
2018-05-21T06:24:01.595Z,26.70
2018-05-21T06:26:29.168Z,26.70
2018-05-21T06:28:57.530Z,27.50
2018-05-21T06:31:25.108Z,27.50
2018-05-21T06:33:53.551Z,28.10
2018-05-21T06:36:21.817Z,27.90
2018-05-21T06:38:49.429Z,27.90
2018-05-21T06:41:17.805Z,28.00
2018-05-21T06:43:46.139Z,28.20
2018-05-21T06:46:13.741Z,28.20
2018-05-21T06:48:42.093Z,28.30
2018-05-21T06:51:09.688Z,28.30
2018-05-21T06:53:38.016Z,28.50
2018-05-21T06:56:05.645Z,28.50
2018-05-21T06:58:33.818Z,28.90
2018-05-21T07:01:01.412Z,29.70
2018-05-21T07:03:28.972Z,29.50
2018-05-21T07:05:56.671Z,28.70
2018-05-21T07:08:24.262Z,28.20
2018-05-21T07:10:51.852Z,28.60
2018-05-21T07:13:19.635Z,28.90
2018-05-21T07:15:47.258Z,29.80
2018-05-21T07:18:14.912Z,30.20
2018-05-21T07:20:42.441Z,30.50
2018-05-21T07:23:10.109Z,31.10
2018-05-21T07:25:37.697Z,31.10
2018-05-21T07:28:06.038Z,31.00
2018-05-21T07:30:33.649Z,30.90
2018-05-21T07:33:01.377Z,30.80
2018-05-21T07:35:29.003Z,30.90
2018-05-21T07:37:56.605Z,30.60
2018-05-21T07:40:24.995Z,30.20
2018-05-21T07:42:53.420Z,29.90
2018-05-21T07:45:21.036Z,29.90
2018-05-21T07:47:49.460Z,29.80
2018-05-21T07:50:17.026Z,29.70
2018-05-21T07:52:44.637Z,30.20
2018-05-21T07:55:12.986Z,31.30
2018-05-21T07:57:40.649Z,31.30
2018-05-21T08:00:08.215Z,31.50
2018-05-21T08:02:36.359Z,31.70
2018-05-21T08:05:03.967Z,32.10
2018-05-21T08:07:31.627Z,32.30
2018-05-21T08:09:59.213Z,31.60
2018-05-21T08:12:26.800Z,31.40
2018-05-21T08:14:54.583Z,31.40
2018-05-21T08:17:22.753Z,31.80
2018-05-21T08:19:51.115Z,31.30
2018-05-21T08:22:18.751Z,31.30
2018-05-21T08:24:46.345Z,30.90
2018-05-21T08:27:13.926Z,31.20
2018-05-21T08:29:41.544Z,31.30
2018-05-21T08:32:09.120Z,31.30
2018-05-21T08:34:37.742Z,31.30
2018-05-21T08:37:05.365Z,31.50
2018-05-21T08:39:32.929Z,31.10
2018-05-21T08:42:00.501Z,30.00
2018-05-21T08:44:28.104Z,29.80
2018-05-21T08:46:55.694Z,30.00
2018-05-21T08:49:24.056Z,30.00
2018-05-21T08:51:52.408Z,29.90
2018-05-21T08:54:19.984Z,29.80
2018-05-21T08:56:47.575Z,30.20
2018-05-21T08:59:15.238Z,30.20
2018-05-21T09:01:42.885Z,30.80
2018-05-21T09:04:11.893Z,30.60
2018-05-21T09:06:39.493Z,30.60
2018-05-21T09:09:07.084Z,30.50
2018-05-21T09:11:34.660Z,30.40
2018-05-21T09:14:03.013Z,30.20
2018-05-21T09:16:30.605Z,30.20
2018-05-21T09:18:58.963Z,29.50
2018-05-21T09:21:26.574Z,29.60
2018-05-21T09:23:54.153Z,29.90
2018-05-21T09:26:21.760Z,29.90
2018-05-21T09:28:49.377Z,29.90
2018-05-21T09:31:17.024Z,30.70
2018-05-21T09:33:45.364Z,29.80
2018-05-21T09:36:12.976Z,29.80
2018-05-21T09:38:41.312Z,28.90
2018-05-21T09:41:09.783Z,29.80
2018-05-21T09:43:38.359Z,29.80
2018-05-21T09:46:05.955Z,29.50
2018-05-21T09:48:34.417Z,29.40
2018-05-21T09:51:01.950Z,29.40
2018-05-21T09:53:29.591Z,29.50
2018-05-21T09:55:57.203Z,29.70
2018-05-21T09:58:25.576Z,29.50
2018-05-21T10:00:56.076Z,29.50
2018-05-21T10:03:23.718Z,29.40
2018-05-21T10:05:51.305Z,29.60
2018-05-21T10:08:18.905Z,30.00
2018-05-21T10:10:47.255Z,29.50
2018-05-21T10:13:14.842Z,29.50
2018-05-21T10:15:43.196Z,29.80
2018-05-21T10:18:10.832Z,29.80
2018-05-21T10:20:38.435Z,29.60
2018-05-21T10:23:06.848Z,29.70
2018-05-21T10:25:35.192Z,29.50
2018-05-21T10:28:02.821Z,29.40
2018-05-21T10:30:30.565Z,29.80
2018-05-21T10:32:58.186Z,30.20
2018-05-21T10:35:25.775Z,30.90
2018-05-21T10:37:54.149Z,30.50
2018-05-21T10:40:22.488Z,29.80
2018-05-21T10:42:50.107Z,29.70
2018-05-21T10:45:17.679Z,29.30
2018-05-21T10:47:46.035Z,30.20
2018-05-21T10:50:13.635Z,30.20
2018-05-21T10:52:41.244Z,29.70
2018-05-21T10:55:09.639Z,29.00
2018-05-21T10:57:37.323Z,29.00
2018-05-21T11:00:04.858Z,29.20
2018-05-21T11:02:33.245Z,29.20
2018-05-21T11:05:01.021Z,29.20
2018-05-21T11:07:28.818Z,29.20
2018-05-21T11:09:56.439Z,29.20
2018-05-21T11:12:24.907Z,28.00
2018-05-21T11:14:53.364Z,28.10
2018-05-21T11:17:21.417Z,28.00
2018-05-21T11:19:49.074Z,28.20
2018-05-21T11:22:16.801Z,28.10
2018-05-21T11:24:44.455Z,27.60
2018-05-21T11:27:12.017Z,28.00
2018-05-21T11:29:40.525Z,27.50
2018-05-21T11:32:08.932Z,27.30
2018-05-21T11:34:36.533Z,27.30
2018-05-21T11:37:04.926Z,27.70
2018-05-21T11:39:32.531Z,27.70
2018-05-21T11:42:00.120Z,27.60
2018-05-21T11:44:27.716Z,27.50
2018-05-21T11:46:55.380Z,27.10
2018-05-21T11:49:23.055Z,27.20
2018-05-21T11:51:50.718Z,27.10
2018-05-21T11:54:18.325Z,26.80
2018-05-21T11:56:45.929Z,26.60
2018-05-21T11:59:13.523Z,26.40
2018-05-21T12:01:43.979Z,26.40
2018-05-21T12:04:11.717Z,26.30
2018-05-21T12:06:40.097Z,26.00
2018-05-21T12:09:07.777Z,25.90
2018-05-21T12:11:35.309Z,26.10
2018-05-21T12:14:02.926Z,26.20
2018-05-21T12:16:31.312Z,26.40
2018-05-21T12:18:59.756Z,26.30
2018-05-21T12:21:27.325Z,26.30
2018-05-21T12:23:54.933Z,26.30
2018-05-21T12:26:22.522Z,26.20
2018-05-21T12:28:50.227Z,26.30
2018-05-21T12:31:18.487Z,26.20
2018-05-21T12:33:46.100Z,26.20
2018-05-21T12:36:13.695Z,26.20
2018-05-21T12:38:41.297Z,26.30
2018-05-21T12:41:09.681Z,26.30
2018-05-21T12:43:38.047Z,26.20
2018-05-21T12:46:05.677Z,26.20
2018-05-21T12:48:33.496Z,26.10
2018-05-21T12:51:01.117Z,25.90
2018-05-21T12:53:28.713Z,25.90
2018-05-21T12:55:57.060Z,25.90
2018-05-21T12:58:24.699Z,25.80
2018-05-21T13:00:53.085Z,26.20
2018-05-21T13:03:20.660Z,26.20
2018-05-21T13:05:48.287Z,26.30
2018-05-21T13:08:15.869Z,26.40
2018-05-21T13:10:44.114Z,26.40
2018-05-21T13:13:11.706Z,26.40
2018-05-21T13:15:39.293Z,26.30
2018-05-21T13:18:06.874Z,26.30
2018-05-21T13:20:36.141Z,26.50
2018-05-21T13:23:03.812Z,26.50
2018-05-21T13:25:31.420Z,26.40
2018-05-21T13:27:59.058Z,26.30
2018-05-21T13:30:27.407Z,25.90
2018-05-21T13:32:55.035Z,26.00
2018-05-21T13:35:22.629Z,25.90
2018-05-21T13:37:50.225Z,26.00
2018-05-21T13:40:18.670Z,25.90
2018-05-21T13:42:47.252Z,25.90
2018-05-21T13:45:14.825Z,26.00
2018-05-21T13:47:42.438Z,25.90
2018-05-21T13:50:10.085Z,25.80
2018-05-21T13:52:38.442Z,25.90
2018-05-21T13:55:06.780Z,25.90
2018-05-21T13:57:34.359Z,25.90
2018-05-21T14:00:01.962Z,25.90
2018-05-21T14:02:30.291Z,25.80
2018-05-21T14:04:57.882Z,25.80
2018-05-21T14:07:25.447Z,25.70
2018-05-21T14:09:53.038Z,25.60
2018-05-21T14:12:20.645Z,25.70
2018-05-21T14:14:48.242Z,25.70
2018-05-21T14:17:16.637Z,25.70
2018-05-21T14:19:45.004Z,25.60
2018-05-21T14:22:12.610Z,25.60
2018-05-21T14:24:40.268Z,25.50
2018-05-21T14:27:07.943Z,25.60
2018-05-21T14:29:35.597Z,25.50
2018-05-21T14:32:03.918Z,25.50
2018-05-21T14:34:31.580Z,25.50
2018-05-21T14:36:59.193Z,25.40
2018-05-21T14:39:26.825Z,25.30
2018-05-21T14:41:55.161Z,25.30
2018-05-21T14:44:22.800Z,25.30
2018-05-21T14:46:50.388Z,25.20
2018-05-21T14:49:18.004Z,25.30
2018-05-21T14:51:45.611Z,25.30
2018-05-21T14:54:13.881Z,25.30
2018-05-21T14:56:41.495Z,25.30
2018-05-21T14:59:09.927Z,25.30
2018-05-21T15:01:37.602Z,25.30
2018-05-21T15:04:05.209Z,25.30
2018-05-21T15:06:33.568Z,25.30
2018-05-21T15:09:01.914Z,25.30
2018-05-21T15:11:29.503Z,25.20
2018-05-21T15:13:57.892Z,25.30
2018-05-21T15:16:26.274Z,25.20
2018-05-21T15:18:54.644Z,25.20
2018-05-21T15:21:22.286Z,25.10
2018-05-21T15:23:50.034Z,25.10
2018-05-21T15:26:17.611Z,25.10
2018-05-21T15:28:45.228Z,25.10
2018-05-21T15:31:12.821Z,24.90
2018-05-21T15:33:40.455Z,24.80
2018-05-21T15:36:08.131Z,24.80
2018-05-21T15:38:35.653Z,24.80
2018-05-21T15:41:03.304Z,24.80
2018-05-21T15:43:31.040Z,24.80
2018-05-21T15:45:58.656Z,24.70
2018-05-21T15:48:26.441Z,24.70
2018-05-21T15:50:53.973Z,24.70
2018-05-21T15:53:22.332Z,24.60
2018-05-21T15:55:51.554Z,24.60
2018-05-21T15:58:19.159Z,24.50
2018-05-21T16:00:46.740Z,24.60
2018-05-21T16:03:14.348Z,24.50
2018-05-21T16:05:42.172Z,24.50
2018-05-21T16:08:09.895Z,24.40
2018-05-21T16:10:40.545Z,24.40
2018-05-21T16:13:08.210Z,24.40
2018-05-21T16:15:35.821Z,24.40
2018-05-21T16:18:06.246Z,24.50
2018-05-21T16:20:36.797Z,24.50
2018-05-21T16:23:04.385Z,24.50
2018-05-21T16:25:32.054Z,24.40
2018-05-21T16:27:59.648Z,24.30
2018-05-21T16:30:28.113Z,24.20
2018-05-21T16:32:55.690Z,24.10
2018-05-21T16:35:24.095Z,24.00
2018-05-21T16:37:52.206Z,24.00
2018-05-21T16:40:19.983Z,24.10
2018-05-21T16:42:48.475Z,23.90
2018-05-21T16:45:18.121Z,23.90
2018-05-21T16:47:46.710Z,23.90
2018-05-21T16:50:14.187Z,23.90
2018-05-21T16:52:41.821Z,23.90
2018-05-21T16:55:10.158Z,23.90
2018-05-21T16:57:38.322Z,23.90
2018-05-21T17:00:05.897Z,23.80
2018-05-21T17:02:33.480Z,23.80
2018-05-21T17:05:01.042Z,23.80
2018-05-21T17:07:28.647Z,23.80
2018-05-21T17:09:56.231Z,23.80
2018-05-21T17:12:23.868Z,23.80
2018-05-21T17:14:51.483Z,23.80
2018-05-21T17:17:19.067Z,23.80
2018-05-21T17:19:47.442Z,23.70
2018-05-21T17:22:15.830Z,23.60
2018-05-21T17:24:44.189Z,23.60
2018-05-21T17:27:11.871Z,23.50
2018-05-21T17:29:40.246Z,23.40
2018-05-21T17:32:08.664Z,23.40
2018-05-21T17:34:36.317Z,23.30
2018-05-21T17:37:04.006Z,23.30
2018-05-21T17:39:31.590Z,23.30
2018-05-21T17:41:59.194Z,23.20
2018-05-21T17:44:26.784Z,23.20
2018-05-21T17:46:55.297Z,23.10
2018-05-21T17:49:22.878Z,23.00
2018-05-21T17:51:50.519Z,22.90
2018-05-21T17:54:18.105Z,22.80
2018-05-21T17:56:46.489Z,22.70
2018-05-21T17:59:14.839Z,22.60
2018-05-21T18:01:42.480Z,22.60
2018-05-21T18:04:10.069Z,22.60
2018-05-21T18:06:37.665Z,22.50
2018-05-21T18:09:06.014Z,22.40
2018-05-21T18:11:33.600Z,22.30
2018-05-21T18:14:01.206Z,22.30
2018-05-21T18:16:28.805Z,22.30
2018-05-21T18:18:56.441Z,22.20
2018-05-21T18:21:25.025Z,22.20
2018-05-21T18:23:52.528Z,22.10
2018-05-21T18:26:20.134Z,22.00
2018-05-21T18:28:47.729Z,22.00
2018-05-21T18:31:15.343Z,21.90
2018-05-21T18:33:43.691Z,21.80
2018-05-21T18:36:11.332Z,21.80
2018-05-21T18:38:38.940Z,21.70
2018-05-21T18:41:06.547Z,21.60
2018-05-21T18:43:34.265Z,21.50
2018-05-21T18:46:01.881Z,21.50
2018-05-21T18:48:29.675Z,21.40
2018-05-21T18:50:57.356Z,21.20
2018-05-21T18:53:24.987Z,21.20
2018-05-21T18:55:53.346Z,21.10
2018-05-21T18:58:20.933Z,21.00
2018-05-21T19:00:49.370Z,20.90
2018-05-21T19:03:16.978Z,20.90
2018-05-21T19:05:45.491Z,20.80
2018-05-21T19:08:13.184Z,18.50
2018-05-21T19:10:40.337Z,20.60
2018-05-21T19:13:08.220Z,20.60
2018-05-21T19:15:35.872Z,20.50
2018-05-21T19:18:03.440Z,20.40
2018-05-21T19:20:31.040Z,20.30
2018-05-21T19:22:58.673Z,20.20
2018-05-21T19:25:26.294Z,20.20
2018-05-21T19:27:53.896Z,20.10
2018-05-21T19:30:22.296Z,20.00
2018-05-21T19:32:50.655Z,19.90
2018-05-21T19:35:18.309Z,19.90
2018-05-21T19:37:46.006Z,19.90
2018-05-21T19:40:13.717Z,19.80
2018-05-21T19:42:41.373Z,19.80
2018-05-21T19:45:09.103Z,19.60
2018-05-21T19:47:36.698Z,19.60
2018-05-21T19:50:04.357Z,19.50
2018-05-21T19:52:31.965Z,19.50
2018-05-21T19:55:00.359Z,19.40
2018-05-21T19:57:28.798Z,19.40
2018-05-21T19:59:56.465Z,19.40
2018-05-21T20:02:24.032Z,19.40
2018-05-21T20:04:51.617Z,19.30
2018-05-21T20:07:20.025Z,19.30
2018-05-21T20:09:48.378Z,19.30
2018-05-21T20:12:16.804Z,19.30
2018-05-21T20:14:44.425Z,19.30
2018-05-21T20:17:12.824Z,19.20
2018-05-21T20:19:40.426Z,19.20
2018-05-21T20:22:08.024Z,19.20
2018-05-21T20:24:36.402Z,19.20
2018-05-21T20:27:04.739Z,19.20
2018-05-21T20:29:32.375Z,19.20
2018-05-21T20:32:00.888Z,19.20
2018-05-21T20:34:28.515Z,19.10
2018-05-21T20:36:56.141Z,19.10
2018-05-21T20:39:23.758Z,19.10
2018-05-21T20:41:51.326Z,19.00
2018-05-21T20:44:18.973Z,19.00
2018-05-21T20:46:46.559Z,18.90
2018-05-21T20:49:14.398Z,18.80
2018-05-21T20:51:41.978Z,18.70
2018-05-21T20:54:09.603Z,18.60
2018-05-21T20:56:37.222Z,18.60
2018-05-21T20:59:04.829Z,18.60
2018-05-21T21:01:32.488Z,18.50
2018-05-21T21:04:00.840Z,18.50
2018-05-21T21:06:28.463Z,18.40
2018-05-21T21:08:56.176Z,18.40
2018-05-21T21:11:24.569Z,18.40
2018-05-21T21:13:52.933Z,18.40
2018-05-21T21:16:21.349Z,18.40
2018-05-21T21:18:48.906Z,18.30
2018-05-21T21:21:16.612Z,18.30
2018-05-21T21:23:44.197Z,18.30
2018-05-21T21:26:12.554Z,18.30
2018-05-21T21:28:40.237Z,18.30
2018-05-21T21:31:07.824Z,18.30
2018-05-21T21:33:35.435Z,18.30
2018-05-21T21:36:03.105Z,18.30
2018-05-21T21:38:30.716Z,18.30
2018-05-21T21:40:58.439Z,18.30
2018-05-21T21:43:26.035Z,18.20
2018-05-21T21:45:54.378Z,18.10
2018-05-21T21:48:22.004Z,18.10
2018-05-21T21:50:49.597Z,18.00
2018-05-21T21:53:17.223Z,17.90
2018-05-21T21:55:44.887Z,17.80
2018-05-21T21:58:12.484Z,17.80
2018-05-21T22:00:40.112Z,17.70
2018-05-21T22:03:07.711Z,17.70
2018-05-21T22:05:35.296Z,17.70
2018-05-21T22:08:03.764Z,17.50
2018-05-21T22:10:31.352Z,17.50
2018-05-21T22:12:58.976Z,17.50
2018-05-21T22:15:26.611Z,17.40
2018-05-21T22:17:54.250Z,17.30
2018-05-21T22:20:21.871Z,17.30
2018-05-21T22:22:49.480Z,17.20
2018-05-21T22:25:17.092Z,17.20
2018-05-21T22:27:44.672Z,17.10
2018-05-21T22:30:13.010Z,17.00
2018-05-21T22:32:40.606Z,17.00
2018-05-21T22:35:08.209Z,16.90
2018-05-21T22:37:35.831Z,16.80
2018-05-21T22:40:03.490Z,16.70
2018-05-21T22:42:32.007Z,16.60
2018-05-21T22:44:59.601Z,16.60
2018-05-21T22:47:27.239Z,16.60
2018-05-21T22:49:55.088Z,16.50
2018-05-21T22:52:22.773Z,16.50
2018-05-21T22:54:50.427Z,16.50
2018-05-21T22:57:18.046Z,16.50
2018-05-21T22:59:45.677Z,16.50
2018-05-21T23:02:13.278Z,16.40
2018-05-21T23:04:41.638Z,16.40
2018-05-21T23:07:09.292Z,16.30
2018-05-21T23:09:36.885Z,16.30
2018-05-21T23:12:04.553Z,16.30
2018-05-21T23:14:33.031Z,16.30
2018-05-21T23:17:00.634Z,16.30
2018-05-21T23:19:28.241Z,16.30
2018-05-21T23:21:55.812Z,16.20
2018-05-21T23:24:24.285Z,16.30
2018-05-21T23:26:51.883Z,16.30
2018-05-21T23:29:19.496Z,16.30
2018-05-21T23:31:47.098Z,16.20
2018-05-21T23:34:15.517Z,16.20
2018-05-21T23:36:43.129Z,16.20
2018-05-21T23:39:11.611Z,16.30
2018-05-21T23:41:39.980Z,16.30
2018-05-21T23:44:08.433Z,16.30
2018-05-21T23:46:36.015Z,16.30
2018-05-21T23:49:03.623Z,16.40
2018-05-21T23:51:31.240Z,16.40
2018-05-21T23:53:58.851Z,16.50
2018-05-21T23:56:26.465Z,16.50
2018-05-21T23:58:54.046Z,16.50
